Bissen, Luxembourg
Current Conditions -  °F | °C
As of 10:50 PM on Thursday 27 Nov 2014 (Local Time) from ELLX Reporting Station
Moderate Fog Moderate Fog  
Wind Chill: 35°   Ceiling: 100
Heat Index: 41°   Visibility: 0.37mi
Dew Point: 41°   Wind: 9mph
Humidity: 100%   Direction: 90°E
Pressure: 29.71"   Gusts: NA
Location:  49.79°N, 6.07°E
Report Text: ELLX 272150Z 09008KT 060V120 0600 R24/P1500VP1500U FG OVC001 05/05 Q1006 TEMPO 0500 FG
Loading
Personal Weather Stations






























Interactive Weather Map New forecast layout! Learn more

10-Day Weather Forecast

Advertisements
Track Severe Weather on mobile